Time;durP1;ratioP1;P1;durP2;ratioP2;P2;SDS_P1;SDS_P2;PMS_P1;PMS_P2;Temp;Humidity;BMP_temperature;BMP_pressure;BME280_temperature;BME280_humidity;BME280_pressure;Samples;Min_cycle;Max_cycle;Signal;HPM_P1;HPM_P2
2022/09/08 00:00:38;;;;;;;17.50;13.60;;;;;;;19.33;77.19;98290.16;5058371;28;20040;-83
2022/09/08 00:03:08;;;;;;;22.65;14.07;;;;;;;19.20;76.87;98266.78;5063206;28;20051;-83
2022/09/08 00:05:40;;;;;;;15.82;12.70;;;;;;;19.30;76.77;98280.00;5066100;28;20054;-84
2022/09/08 00:08:05;;;;;;;17.27;12.55;;;;;;;19.26;76.61;98270.91;5060042;28;20053;-84
2022/09/08 00:10:31;;;;;;;15.20;12.77;;;;;;;19.09;76.79;98265.50;5068404;28;20036;-84
2022/09/08 00:12:57;;;;;;;14.27;12.55;;;;;;;19.16;76.53;98254.19;5065273;28;20469;-84
2022/09/08 00:15:23;;;;;;;15.40;13.05;;;;;;;19.12;76.65;98255.94;5044965;28;20174;-84
2022/09/08 00:17:49;;;;;;;17.15;13.63;;;;;;;18.92;76.90;98235.72;5055459;28;20041;-84
2022/09/08 00:20:17;;;;;;;17.75;13.52;;;;;;;19.06;76.36;98239.09;5060677;28;20181;-84
2022/09/08 00:22:42;;;;;;;15.18;13.18;;;;;;;18.99;76.54;98230.66;5062687;28;20032;-84
2022/09/08 00:25:08;;;;;;;20.75;13.77;;;;;;;19.00;77.23;98243.03;5038720;28;20037;-83
2022/09/08 00:27:33;;;;;;;19.73;13.55;;;;;;;18.91;77.18;98238.75;5028038;28;20032;-83
2022/09/08 00:29:59;;;;;;;20.73;14.70;;;;;;;18.85;77.23;98240.81;5063986;28;20150;-83
2022/09/08 00:32:24;;;;;;;17.30;14.55;;;;;;;18.91;76.99;98257.69;5057186;28;20024;-83
2022/09/08 00:34:50;;;;;;;18.60;14.93;;;;;;;18.80;77.15;98249.09;5063183;28;20032;-83
2022/09/08 00:37:17;;;;;;;19.13;15.00;;;;;;;18.89;77.22;98257.22;5056476;28;20111;-83
2022/09/08 00:39:42;;;;;;;20.02;15.30;;;;;;;18.77;77.15;98249.72;5077486;28;20107;-82
2022/09/08 00:42:08;;;;;;;17.25;15.27;;;;;;;18.81;77.28;98266.91;5062201;28;20132;-84
2022/09/08 00:44:50;;;;;;;19.95;16.02;;;;;;;18.79;77.27;98258.31;5065892;28;20033;-84
2022/09/08 00:47:26;;;;;;;19.35;15.98;;;;;;;18.83;77.00;98258.50;5082383;28;20512;-84
2022/09/08 00:50:06;;;;;;;19.70;16.35;;;;;;;18.77;76.89;98243.50;5064060;28;20043;-84
2022/09/08 00:52:45;;;;;;;20.73;16.77;;;;;;;18.69;77.38;98237.00;5043631;28;20059;-84
2022/09/08 00:55:11;;;;;;;21.02;15.57;;;;;;;18.61;76.94;98224.22;5063116;28;20533;-84
2022/09/08 00:57:37;;;;;;;19.00;15.85;;;;;;;18.63;77.01;98227.44;5044767;28;20025;-84
2022/09/08 01:00:06;;;;;;;19.25;14.82;;;;;;;18.60;77.35;98236.16;5063629;28;20059;-83
2022/09/08 01:02:32;;;;;;;19.23;16.52;;;;;;;18.45;77.52;98215.00;5065008;28;20107;-84
2022/09/08 01:05:09;;;;;;;17.23;15.43;;;;;;;18.47;77.44;98212.78;5066966;28;20547;-84
2022/09/08 01:14:00;;;;;;;20.55;16.63;;;;;;;18.59;77.05;98202.13;5062252;28;20056;-84
2022/09/08 01:16:25;;;;;;;19.08;16.17;;;;;;;18.67;76.76;98207.53;5044926;28;20039;-83
2022/09/08 01:18:52;;;;;;;21.42;17.20;;;;;;;18.53;76.84;98190.69;5064654;28;20032;-83
2022/09/08 01:21:33;;;;;;;21.27;17.60;;;;;;;18.76;76.21;98209.47;5062327;28;20472;-84
2022/09/08 01:24:29;;;;;;;23.50;16.10;;;;;;;18.65;75.75;98190.06;5062748;28;20031;-83
2022/09/08 01:27:38;;;;;;;21.20;17.95;;;;;;;18.62;76.14;98207.72;5061830;28;20031;-83
2022/09/08 01:30:08;;;;;;;17.88;15.55;;;;;;;18.47;76.32;98189.25;5012033;28;20827;-83
2022/09/08 01:32:35;;;;;;;24.15;17.10;;;;;;;18.43;76.40;98187.47;5012126;28;20131;-83
2022/09/08 01:35:01;;;;;;;19.77;17.75;;;;;;;18.47;76.77;98201.97;5035628;28;20062;-83
2022/09/08 01:37:27;;;;;;;22.88;18.38;;;;;;;18.33;77.53;98190.44;5059534;28;20050;-84
2022/09/08 01:39:53;;;;;;;22.45;18.20;;;;;;;18.47;77.47;98191.16;5063087;28;20039;-83
2022/09/08 01:42:19;;;;;;;19.88;16.00;;;;;;;18.40;77.97;98186.19;5066105;28;20033;-84
2022/09/08 01:44:44;;;;;;;20.80;17.52;;;;;;;18.43;77.29;98190.16;5036655;28;20389;-83
2022/09/08 01:47:11;;;;;;;25.15;18.88;;;;;;;18.34;77.16;98165.03;5060130;28;20516;-83
2022/09/08 01:49:36;;;;;;;22.83;18.33;;;;;;;18.30;77.25;98169.47;5048256;28;20025;-84
2022/09/08 01:52:02;;;;;;;25.25;17.17;;;;;;;18.48;77.32;98184.63;5042660;28;20101;-83
2022/09/08 01:54:28;;;;;;;27.70;19.60;;;;;;;18.27;77.39;98167.38;5064784;28;20103;-83
2022/09/08 01:56:55;;;;;;;24.33;18.48;;;;;;;18.43;77.71;98192.88;5063551;28;20119;-83
2022/09/08 01:59:21;;;;;;;26.10;20.13;;;;;;;18.34;77.57;98182.03;5045553;28;20044;-83
2022/09/08 02:01:46;;;;;;;24.23;19.33;;;;;;;18.34;77.71;98176.63;5045144;28;21820;-84
2022/09/08 02:04:12;;;;;;;28.50;20.50;;;;;;;18.38;77.43;98182.19;5045438;28;20127;-83
2022/09/08 02:06:37;;;;;;;24.55;19.58;;;;;;;18.39;77.09;98167.59;5064421;28;20036;-84
2022/09/08 02:09:03;;;;;;;28.23;20.45;;;;;;;18.36;77.52;98169.00;5058010;28;20041;-83
2022/09/08 02:11:29;;;;;;;24.40;19.58;;;;;;;18.44;77.46;98181.75;5050730;28;20087;-84
2022/09/08 02:13:54;;;;;;;23.88;19.40;;;;;;;18.31;77.79;98157.53;5055254;28;20119;-84
2022/09/08 02:16:20;;;;;;;26.70;20.15;;;;;;;18.39;77.30;98162.19;5060748;28;20104;-84
2022/09/08 02:18:46;;;;;;;22.42;18.05;;;;;;;18.41;77.77;98174.25;5058546;28;21955;-83
2022/09/08 02:21:12;;;;;;;32.08;19.73;;;;;;;18.47;78.14;98186.56;5059867;28;20090;-84
2022/09/08 02:23:40;;;;;;;35.03;22.10;;;;;;;18.47;78.32;98183.03;5062264;28;20032;-84
2022/09/08 02:26:07;;;;;;;38.80;23.88;;;;;;;18.45;78.14;98167.16;5065414;28;20056;-83
2022/09/08 02:28:33;;;;;;;46.05;27.70;;;;;;;18.52;78.16;98169.38;5058902;28;20028;-84
2022/09/08 02:31:01;;;;;;;50.63;27.77;;;;;;;18.29;78.35;98160.56;5058634;28;20499;-84
2022/09/08 02:33:29;;;;;;;52.92;28.13;;;;;;;18.33;78.96;98158.03;5061106;28;20445;-83
2022/09/08 02:35:54;;;;;;;51.85;28.25;;;;;;;18.43;78.78;98139.63;5060228;28;20055;-84
2022/09/08 02:38:22;;;;;;;44.33;26.60;;;;;;;18.40;79.15;98142.13;5057222;28;20024;-83
2022/09/08 02:40:47;;;;;;;44.33;25.15;;;;;;;18.45;79.23;98147.44;5043711;28;20044;-83
2022/09/08 02:43:13;;;;;;;54.47;28.50;;;;;;;18.31;79.10;98135.94;5055602;28;20041;-83
2022/09/08 02:45:39;;;;;;;43.60;26.60;;;;;;;18.41;78.86;98135.63;5055319;28;20032;-83
2022/09/08 02:48:05;;;;;;;46.72;26.95;;;;;;;18.50;78.93;98144.59;5056182;28;20123;-83
2022/09/08 02:50:30;;;;;;;49.92;29.60;;;;;;;18.35;78.46;98112.56;5057821;28;20170;-83
2022/09/08 02:52:56;;;;;;;43.80;27.13;;;;;;;17.97;78.96;98059.13;5057956;28;21741;-83
2022/09/08 02:55:23;;;;;;;40.80;28.08;;;;;;;18.06;79.00;98105.06;5061301;28;20067;-83
2022/09/08 02:57:49;;;;;;;32.47;23.67;;;;;;;18.40;79.05;98131.34;5057512;28;20071;-83
2022/09/08 03:00:15;;;;;;;36.88;24.35;;;;;;;18.08;79.56;98129.06;5059132;28;20542;-84
2022/09/08 03:02:41;;;;;;;34.72;22.40;;;;;;;18.33;78.68;98125.59;5042226;28;20020;-83
2022/09/08 03:05:07;;;;;;;34.30;22.77;;;;;;;18.45;78.45;98128.53;5060481;28;20032;-83
2022/09/08 03:07:32;;;;;;;28.70;20.17;;;;;;;18.39;78.07;98124.34;5063826;28;20531;-83
2022/09/08 03:09:57;;;;;;;30.63;22.63;;;;;;;18.10;79.49;98121.44;5040445;28;20170;-84
2022/09/08 03:12:26;;;;;;;30.73;23.38;;;;;;;18.41;78.56;98127.53;5057760;28;21747;-84
2022/09/08 03:14:52;;;;;;;34.28;23.85;;;;;;;18.30;78.42;98110.03;5038499;28;20036;-84
2022/09/08 03:17:17;;;;;;;31.33;24.05;;;;;;;18.47;78.45;98126.28;5055947;28;22018;-84
2022/09/08 03:19:43;;;;;;;36.97;26.48;;;;;;;18.30;78.41;98093.81;5052521;28;20052;-83
2022/09/08 03:22:08;;;;;;;39.85;27.73;;;;;;;18.28;78.25;98085.25;5057903;28;20652;-84
2022/09/08 03:24:33;;;;;;;38.13;27.85;;;;;;;18.32;78.81;98103.22;5054390;28;20044;-84
2022/09/08 03:27:00;;;;;;;41.65;27.33;;;;;;;18.37;79.29;98105.72;5054953;28;20032;-83
2022/09/08 03:29:30;;;;;;;39.22;27.98;;;;;;;18.39;79.08;98105.44;5059855;28;20165;-84
2022/09/08 03:31:55;;;;;;;37.20;26.83;;;;;;;18.40;79.31;98093.50;5054445;28;20029;-83
2022/09/08 03:34:21;;;;;;;47.28;30.88;;;;;;;18.26;79.71;98106.38;5052677;28;20063;-83
2022/09/08 03:36:46;;;;;;;55.05;32.50;;;;;;;17.49;82.63;98103.41;5055107;28;20044;-84
2022/09/08 03:39:11;;;;;;;54.38;32.97;;;;;;;17.13;84.48;98080.09;5056541;28;20482;-83
2022/09/08 03:41:37;;;;;;;40.50;28.17;;;;;;;17.41;84.04;98077.97;5061347;28;20064;-83
2022/09/08 03:44:03;;;;;;;43.55;29.50;;;;;;;17.91;82.37;98084.69;5057226;28;20036;-83
2022/09/08 03:46:28;;;;;;;40.30;28.08;;;;;;;18.13;81.48;98093.81;5055558;28;20033;-83
2022/09/08 03:48:54;;;;;;;46.45;29.90;;;;;;;17.91;81.51;98081.19;5039411;28;20056;-83
2022/09/08 03:51:22;;;;;;;40.85;28.40;;;;;;;18.17;81.11;98075.84;5037157;28;20067;-84
2022/09/08 03:53:48;;;;;;;41.17;28.52;;;;;;;18.31;80.54;98065.69;5060973;28;20028;-84
2022/09/08 03:56:14;;;;;;;41.42;27.60;;;;;;;18.28;79.97;98069.81;5059434;28;20035;-83
2022/09/08 03:58:40;;;;;;;38.65;27.10;;;;;;;18.47;79.92;98088.47;5036195;28;20037;-84
2022/09/08 04:01:16;;;;;;;41.17;26.50;;;;;;;18.38;80.12;98084.91;5057374;28;20036;-84
2022/09/08 04:03:42;;;;;;;47.35;30.67;;;;;;;18.41;80.49;98082.38;5075088;28;20158;-83
2022/09/08 04:06:08;;;;;;;42.90;28.85;;;;;;;18.38;79.92;98074.13;5060716;28;20040;-81
2022/09/08 04:08:34;;;;;;;60.05;30.65;;;;;;;18.39;80.31;98083.81;5044594;28;20044;-81
2022/09/08 04:11:00;;;;;;;65.05;31.10;;;;;;;18.43;80.22;98088.28;5061819;28;20477;-81
2022/09/08 04:13:26;;;;;;;63.80;32.35;;;;;;;18.22;80.28;98091.88;5074556;28;20050;-80
2022/09/08 04:15:53;;;;;;;60.97;31.95;;;;;;;18.34;80.26;98092.06;5060895;28;20024;-80
2022/09/08 04:18:18;;;;;;;61.72;32.72;;;;;;;18.12;80.56;98070.59;5062391;28;20574;-81
2022/09/08 04:20:44;;;;;;;56.17;27.33;;;;;;;18.31;80.05;98101.59;5052529;28;20044;-81
2022/09/08 04:23:09;;;;;;;56.70;30.00;;;;;;;18.15;80.54;98078.06;5059356;28;20039;-81
2022/09/08 04:25:35;;;;;;;58.95;30.38;;;;;;;18.15;80.71;98115.91;5044674;28;20043;-81
2022/09/08 04:28:00;;;;;;;57.70;31.58;;;;;;;18.02;80.66;98087.88;5050938;28;20043;-81
2022/09/08 04:30:26;;;;;;;59.97;32.60;;;;;;;18.13;80.72;98093.81;5060009;28;20063;-81
2022/09/08 04:32:52;;;;;;;58.05;33.85;;;;;;;17.98;81.22;98081.53;5044726;28;20039;-80
2022/09/08 04:35:17;;;;;;;54.95;31.77;;;;;;;18.13;80.87;98110.78;5078766;28;20074;-81
2022/09/08 04:37:42;;;;;;;61.30;33.88;;;;;;;18.08;81.00;98127.16;5069329;28;21810;-80
2022/09/08 04:40:08;;;;;;;61.35;34.63;;;;;;;18.13;81.10;98135.09;5056630;28;20028;-80
2022/09/08 04:42:35;;;;;;;66.20;33.03;;;;;;;18.07;80.87;98140.97;5072161;28;20054;-80
2022/09/08 04:45:01;;;;;;;64.20;33.85;;;;;;;17.94;81.03;98113.78;5067395;28;20032;-80
2022/09/08 04:47:26;;;;;;;66.25;34.33;;;;;;;18.06;80.90;98147.50;5061999;28;20047;-81
2022/09/08 04:49:53;;;;;;;67.30;33.45;;;;;;;18.04;81.20;98155.09;5063603;28;20047;-80
2022/09/08 04:52:24;;;;;;;69.10;33.13;;;;;;;18.00;81.15;98143.34;5062065;28;20040;-82
2022/09/08 04:54:49;;;;;;;57.80;32.97;;;;;;;18.00;80.80;98113.63;5065887;28;20029;-83
2022/09/08 04:57:15;;;;;;;63.58;34.88;;;;;;;18.08;80.49;98137.97;5043305;28;20036;-84
2022/09/08 04:59:41;;;;;;;62.13;32.40;;;;;;;18.02;80.24;98133.03;5034759;28;20033;-84
2022/09/08 05:02:06;;;;;;;69.70;34.92;;;;;;;17.90;80.73;98147.13;5065349;28;20029;-83
2022/09/08 05:04:32;;;;;;;68.10;34.03;;;;;;;17.93;80.95;98143.81;5055250;28;20033;-83
2022/09/08 05:06:57;;;;;;;69.25;34.55;;;;;;;17.73;81.28;98120.88;5070155;28;20074;-84
2022/09/08 05:09:23;;;;;;;63.00;31.30;;;;;;;17.80;81.51;98145.47;5070348;28;20115;-84
2022/09/08 05:11:48;;;;;;;64.25;31.85;;;;;;;17.94;81.38;98139.97;5068626;28;20032;-84
2022/09/08 05:14:13;;;;;;;59.17;31.73;;;;;;;17.78;81.55;98136.09;5062857;28;20063;-84
2022/09/08 05:16:39;;;;;;;59.80;30.30;;;;;;;17.90;81.06;98120.91;5068580;28;20033;-84
2022/09/08 05:19:06;;;;;;;56.60;30.73;;;;;;;17.59;81.81;98125.56;5065940;28;20498;-84
2022/09/08 05:21:34;;;;;;;53.08;28.50;;;;;;;17.62;81.86;98108.75;5067942;28;20099;-84
2022/09/08 05:24:00;;;;;;;55.42;27.63;;;;;;;18.03;80.49;98127.28;5031823;28;20182;-84
2022/09/08 05:26:26;;;;;;;49.78;26.20;;;;;;;18.03;80.40;98118.41;5080676;28;20024;-82
2022/09/08 05:28:53;;;;;;;49.75;25.92;;;;;;;18.11;79.90;98123.03;5070265;28;20346;-81
2022/09/08 05:31:21;;;;;;;42.65;22.63;;;;;;;18.02;79.33;98108.72;5068203;28;20043;-81
2022/09/08 05:33:47;;;;;;;41.72;23.48;;;;;;;18.13;79.81;98112.72;5069225;28;20028;-81
2022/09/08 05:36:24;;;;;;;40.63;22.35;;;;;;;18.10;79.34;98116.03;5069868;28;20507;-81
2022/09/08 05:38:50;;;;;;;35.40;22.27;;;;;;;18.15;79.61;98118.59;5064917;28;20032;-81
2022/09/08 05:41:16;;;;;;;40.47;23.33;;;;;;;17.74;80.77;98110.84;5071334;28;20024;-81
2022/09/08 05:43:42;;;;;;;47.03;28.00;;;;;;;17.41;83.23;98125.78;5033957;28;20032;-81
2022/09/08 05:46:08;;;;;;;39.42;20.45;;;;;;;17.48;82.98;98126.91;5028870;28;20036;-81
2022/09/08 05:48:34;;;;;;;39.97;25.55;;;;;;;17.50;83.04;98132.81;5062732;28;20093;-81
2022/09/08 05:51:00;;;;;;;54.45;31.85;;;;;;;16.78;86.88;98128.69;5059217;28;20032;-81
2022/09/08 05:53:27;;;;;;;35.40;20.23;;;;;;;17.62;82.09;98127.66;5060246;28;20016;-80
2022/09/08 05:56:01;;;;;;;45.28;25.45;;;;;;;17.72;81.58;98121.16;5074217;28;20036;-81
2022/09/08 05:58:28;;;;;;;42.42;21.77;;;;;;;17.02;85.18;98118.38;5058686;28;20063;-80
2022/09/08 06:00:55;;;;;;;36.35;19.88;;;;;;;17.40;82.83;98107.97;5068442;28;20028;-81
2022/09/08 06:03:20;;;;;;;32.55;20.73;;;;;;;17.71;81.63;98114.97;5071070;28;20028;-80
2022/09/08 06:05:46;;;;;;;43.20;25.42;;;;;;;17.23;84.12;98119.50;5077277;28;20028;-81
2022/09/08 06:08:11;;;;;;;43.33;25.95;;;;;;;17.09;84.73;98114.16;5077874;28;20039;-81
2022/09/08 06:10:37;;;;;;;28.38;18.13;;;;;;;18.00;80.45;98121.75;5066017;28;20174;-81
2022/09/08 06:13:03;;;;;;;32.08;20.25;;;;;;;17.63;81.65;98118.44;5069904;28;20029;-80
2022/09/08 06:15:29;;;;;;;20.15;13.32;;;;;;;17.74;80.25;98097.34;5066218;28;20029;-81
2022/09/08 06:17:54;;;;;;;32.20;20.75;;;;;;;17.35;83.80;98089.22;5060849;28;20171;-81
2022/09/08 06:20:20;;;;;;;28.67;17.23;;;;;;;18.03;80.35;98102.19;5032629;28;20401;-81
2022/09/08 06:22:46;;;;;;;25.45;15.38;;;;;;;18.11;79.62;98090.63;5067490;28;20036;-81
2022/09/08 06:25:12;;;;;;;23.92;14.65;;;;;;;18.26;79.72;98109.09;5034531;28;20037;-81
2022/09/08 06:27:57;;;;;;;24.70;15.07;;;;;;;18.23;80.31;98107.81;5062226;28;20048;-81
2022/09/08 06:30:23;;;;;;;23.35;14.55;;;;;;;18.29;80.28;98103.03;5065368;28;20044;-81
2022/09/08 06:32:54;;;;;;;19.05;14.10;;;;;;;18.26;80.30;98092.88;5070542;28;20059;-81
2022/09/08 06:35:23;;;;;;;20.83;13.65;;;;;;;18.27;80.56;98089.03;5047967;28;20080;-81
2022/09/08 06:37:56;;;;;;;19.95;15.00;;;;;;;18.24;80.65;98105.91;5046575;28;20033;-81
2022/09/08 06:40:30;;;;;;;19.27;13.35;;;;;;;18.20;81.46;98100.31;5068481;28;20145;-81
2022/09/08 06:43:04;;;;;;;21.05;13.35;;;;;;;18.35;80.79;98099.84;5069661;28;20058;-82
2022/09/08 06:45:35;;;;;;;17.50;12.90;;;;;;;18.29;80.72;98082.22;5067102;28;20052;-81
2022/09/08 06:48:26;;;;;;;23.23;12.73;;;;;;;17.69;82.20;98084.00;5055893;28;20460;-81
2022/09/08 06:51:00;;;;;;;25.45;12.50;;;;;;;18.25;81.63;98088.56;5062905;28;20041;-80
2022/09/08 06:53:33;;;;;;;16.02;10.93;;;;;;;18.12;81.14;98065.19;5065238;28;21064;-81
2022/09/08 06:56:07;;;;;;;14.10;10.85;;;;;;;18.25;80.85;98059.66;5056600;28;20029;-81
2022/09/08 06:58:33;;;;;;;14.10;10.70;;;;;;;18.14;81.02;98058.38;5064982;28;20029;-82
2022/09/08 07:01:09;;;;;;;18.38;13.35;;;;;;;17.61;82.83;98050.47;5063050;28;20122;-82
2022/09/08 07:04:05;;;;;;;20.75;13.73;;;;;;;16.91;87.50;98071.22;5057108;28;20025;-81
2022/09/08 07:06:52;;;;;;;23.33;14.63;;;;;;;16.64;88.50;98053.31;5058589;28;20025;-82
2022/09/08 07:09:34;;;;;;;24.08;14.75;;;;;;;16.67;88.30;98057.25;5068867;28;20576;-82
2022/09/08 07:12:07;;;;;;;14.52;10.43;;;;;;;17.70;84.72;98045.91;5063008;28;20482;-82
2022/09/08 07:15:00;;;;;;;13.25;9.70;;;;;;;18.10;82.90;98057.41;5067341;28;20025;-82
2022/09/08 07:17:29;;;;;;;12.60;9.20;;;;;;;18.03;82.47;98038.19;5062496;28;20021;-82
2022/09/08 07:19:56;;;;;;;14.60;9.77;;;;;;;18.16;82.03;98060.75;5059473;28;20484;-82
2022/09/08 07:22:43;;;;;;;13.73;8.52;;;;;;;18.12;81.92;98060.59;5064309;28;20064;-83
2022/09/08 07:25:15;;;;;;;13.57;9.32;;;;;;;18.31;82.34;98081.88;5068853;28;20027;-83
2022/09/08 07:27:42;;;;;;;14.15;8.73;;;;;;;18.27;82.47;98081.75;5066308;28;20043;-82
2022/09/08 07:30:14;;;;;;;10.60;7.60;;;;;;;18.15;81.89;98049.13;5064880;28;20107;-82
2022/09/08 07:32:41;;;;;;;13.20;8.10;;;;;;;18.37;81.82;98080.66;5069756;28;20073;-83
2022/09/08 07:35:21;;;;;;;10.55;8.35;;;;;;;18.21;82.25;98071.41;5061808;28;20029;-82
2022/09/08 07:37:49;;;;;;;10.63;8.43;;;;;;;18.30;82.34;98075.72;5053710;28;20033;-82
2022/09/08 07:40:43;;;;;;;10.60;8.23;;;;;;;18.30;82.49;98080.31;5059430;28;20492;-82
2022/09/08 07:43:14;;;;;;;16.13;9.65;;;;;;;18.14;82.29;98057.56;5067258;28;20886;-83
2022/09/08 07:45:48;;;;;;;14.18;11.32;;;;;;;17.84;83.56;98057.34;5066082;28;20025;-83
2022/09/08 07:48:29;;;;;;;16.02;10.48;;;;;;;17.25;86.61;98042.53;5058822;28;20660;-82
2022/09/08 07:51:13;;;;;;;10.68;7.57;;;;;;;17.94;83.39;98057.06;5062320;28;20484;-83
2022/09/08 07:53:45;;;;;;;13.23;8.88;;;;;;;17.97;83.72;98075.31;5067922;28;22373;-82
2022/09/08 07:56:18;;;;;;;13.10;10.85;;;;;;;17.15;87.62;98063.59;5061772;28;20060;-83
2022/09/08 07:59:04;;;;;;;14.77;11.32;;;;;;;17.32;87.28;98081.78;5068265;28;20032;-83
2022/09/08 08:01:45;;;;;;;8.50;7.18;;;;;;;17.98;84.43;98095.84;5067970;28;20028;-83
2022/09/08 08:04:50;;;;;;;10.82;7.03;;;;;;;18.24;83.26;98100.50;5060053;28;20032;-83
2022/09/08 08:07:23;;;;;;;10.02;7.30;;;;;;;18.29;82.42;98120.03;5039958;28;20439;-83
2022/09/08 08:10:15;;;;;;;9.68;6.70;;;;;;;18.36;82.26;98111.47;5061739;28;20420;-83
2022/09/08 08:12:59;;;;;;;8.57;5.90;;;;;;;18.16;83.42;98122.88;5065603;28;20028;-83
2022/09/08 08:16:01;;;;;;;9.50;6.15;;;;;;;18.41;82.51;98117.50;5082922;28;20048;-86
2022/09/08 08:18:45;;;;;;;12.52;6.78;;;;;;;18.35;83.10;98112.56;5043252;28;20119;-86
2022/09/08 08:21:24;;;;;;;9.95;6.75;;;;;;;18.37;82.92;98103.03;5064180;28;20033;-86
2022/09/08 08:24:06;;;;;;;8.52;7.35;;;;;;;18.25;83.41;98093.97;5061971;28;20041;-86
2022/09/08 08:26:37;;;;;;;10.73;6.65;;;;;;;18.46;82.69;98109.28;5063189;28;20028;-86
2022/09/08 08:29:12;;;;;;;10.07;7.05;;;;;;;18.37;82.85;98115.78;5069671;28;20033;-85
2022/09/08 08:31:45;;;;;;;9.63;5.57;;;;;;;18.36;83.10;98108.75;5062232;28;20032;-85
2022/09/08 08:34:24;;;;;;;8.52;5.18;;;;;;;18.26;82.88;98077.44;5065626;28;20027;-86
2022/09/08 08:36:51;;;;;;;7.07;5.15;;;;;;;18.09;83.08;98074.72;5063424;28;20025;-86
2022/09/08 08:39:23;;;;;;;7.97;4.95;;;;;;;17.76;84.92;98081.63;5072327;28;20403;-86
2022/09/08 08:42:13;;;;;;;8.02;4.78;;;;;;;18.03;83.92;98084.09;5058965;28;20025;-87
2022/09/08 08:44:58;;;;;;;7.18;3.72;;;;;;;18.09;84.04;98093.63;5066173;28;20033;-86
2022/09/08 08:47:47;;;;;;;7.97;4.57;;;;;;;18.03;84.64;98091.38;5058604;28;20024;-86
2022/09/08 08:50:39;;;;;;;5.47;4.30;;;;;;;18.10;83.95;98089.03;5065231;28;20035;-87
2022/09/08 08:53:04;;;;;;;5.90;3.78;;;;;;;18.32;83.10;98102.41;5063923;28;20017;-87
2022/09/08 08:56:08;;;;;;;5.35;3.72;;;;;;;18.02;84.77;98098.69;5060910;28;20035;-86
2022/09/08 08:58:51;;;;;;;3.65;2.90;;;;;;;17.94;84.84;98096.78;5062030;28;20031;-86
2022/09/08 09:01:16;;;;;;;5.13;3.60;;;;;;;18.10;84.37;98099.81;5074727;28;20583;-86
2022/09/08 09:04:02;;;;;;;4.32;3.00;;;;;;;18.16;83.66;98098.56;5064665;28;20115;-86
2022/09/08 09:06:51;;;;;;;3.95;3.05;;;;;;;17.97;83.84;98101.56;5071165;28;20024;-86
2022/09/08 09:09:31;;;;;;;4.40;2.85;;;;;;;18.25;83.45;98102.88;5079445;28;20036;-86
2022/09/08 09:12:03;;;;;;;3.75;2.92;;;;;;;18.03;83.93;98100.28;5070656;28;20031;-86
2022/09/08 09:14:40;;;;;;;6.38;3.38;;;;;;;18.31;83.35;98093.50;5068871;28;20029;-86
2022/09/08 09:17:24;;;;;;;5.72;3.50;;;;;;;18.10;83.25;98086.31;5068633;28;20657;-87
2022/09/08 09:20:07;;;;;;;3.13;2.90;;;;;;;18.21;83.91;98096.53;5075492;28;20080;-86
2022/09/08 09:22:45;;;;;;;3.47;2.95;;;;;;;17.96;85.35;98099.94;5067305;28;20029;-85
2022/09/08 09:25:37;;;;;;;3.03;2.40;;;;;;;18.20;84.04;98094.13;5076820;28;20052;-86
2022/09/08 09:28:27;;;;;;;4.30;2.80;;;;;;;18.12;84.25;98084.91;5064130;28;20071;-86
2022/09/08 09:31:12;;;;;;;4.07;2.67;;;;;;;18.47;82.63;98088.47;5066459;28;20476;-86
2022/09/08 09:33:55;;;;;;;3.67;2.72;;;;;;;18.50;82.07;98077.78;5084685;28;20025;-86
2022/09/08 09:36:32;;;;;;;3.20;2.90;;;;;;;18.59;81.66;98086.69;5068355;28;21322;-86
2022/09/08 09:39:12;;;;;;;3.85;2.85;;;;;;;18.20;84.12;98075.19;5067324;28;20024;-86
2022/09/08 09:41:53;;;;;;;4.75;3.15;;;;;;;18.55;82.72;98083.06;5073271;28;20069;-86
2022/09/08 09:44:31;;;;;;;3.25;2.95;;;;;;;18.58;81.74;98070.81;5059623;28;20099;-86
2022/09/08 09:47:24;;;;;;;6.30;2.85;;;;;;;18.65;82.16;98076.53;5059431;28;20072;-86
2022/09/08 09:50:17;;;;;;;3.03;2.70;;;;;;;18.77;81.82;98082.06;5067355;28;20028;-86
2022/09/08 09:52:49;;;;;;;3.45;3.15;;;;;;;18.73;82.11;98081.13;5069376;28;20024;-86
2022/09/08 09:55:56;;;;;;;4.32;3.20;;;;;;;18.46;83.43;98081.44;5071684;28;20043;-86
2022/09/08 09:58:42;;;;;;;4.70;3.08;;;;;;;18.58;82.60;98082.44;5039076;28;20036;-85
2022/09/08 10:01:26;;;;;;;;;;;;;;;18.30;85.16;98086.53;5066775;28;20033;-85
2022/09/08 10:04:13;;;;;;;3.00;2.80;;;;;;;18.65;82.54;98081.94;5072688;28;20403;-85
2022/09/08 10:07:02;;;;;;;5.10;2.58;;;;;;;18.40;83.60;98077.28;5063592;28;20036;-85
2022/09/08 10:09:55;;;;;;;2.85;2.65;;;;;;;18.50;83.38;98077.78;5066627;28;21655;-85
2022/09/08 10:12:23;;;;;;;5.70;2.95;;;;;;;18.40;83.58;98077.28;5070500;28;20033;-85
2022/09/08 10:15:04;;;;;;;3.50;3.20;;;;;;;18.46;83.75;98071.44;5070476;28;20036;-84
2022/09/08 10:18:11;;;;;;;3.13;2.83;;;;;;;18.60;82.91;98069.38;5086959;28;20481;-85
2022/09/08 10:20:52;;;;;;;2.97;2.30;;;;;;;18.59;82.87;98075.09;5067194;28;20472;-85
2022/09/08 10:24:11;;;;;;;3.65;2.83;;;;;;;18.46;83.44;98076.03;5064747;28;20033;-85
2022/09/08 10:27:10;;;;;;;3.50;3.00;;;;;;;18.57;82.57;98067.31;5026236;28;20066;-85
2022/09/08 10:29:44;;;;;;;3.90;2.83;;;;;;;18.45;83.03;98069.06;5048790;28;20487;-84
2022/09/08 10:32:49;;;;;;;2.55;2.35;;;;;;;18.52;82.37;98072.88;5068438;28;20071;-84
2022/09/08 10:35:33;;;;;;;3.20;2.65;;;;;;;18.55;82.58;98074.13;5043324;28;20032;-84
2022/09/08 10:38:37;;;;;;;3.10;2.60;;;;;;;18.54;82.88;98078.75;5060192;28;20020;-84
2022/09/08 10:41:05;;;;;;;4.68;3.53;;;;;;;18.62;82.37;98069.84;5066260;28;20032;-84
2022/09/08 10:43:37;;;;;;;4.18;3.22;;;;;;;18.38;83.60;98074.13;5068077;28;20103;-84
2022/09/08 10:46:48;;;;;;;3.72;3.40;;;;;;;18.26;83.87;98074.72;5070651;28;20115;-84
2022/09/08 10:49:19;;;;;;;4.78;3.05;;;;;;;18.37;83.95;98070.59;5074685;28;20092;-84
2022/09/08 10:51:44;;;;;;;3.83;3.10;;;;;;;18.36;83.88;98079.03;5069248;28;20032;-84
2022/09/08 10:54:16;;;;;;;3.92;2.97;;;;;;;18.47;83.54;98077.66;5072118;28;20100;-84
2022/09/08 10:56:44;;;;;;;2.75;2.50;;;;;;;18.68;82.90;98073.19;5060390;28;20074;-85
2022/09/08 10:59:34;;;;;;;3.13;2.90;;;;;;;18.68;82.29;98082.09;5067812;28;20016;-84
2022/09/08 11:02:12;;;;;;;2.42;2.22;;;;;;;18.44;82.89;98070.97;5069071;28;20028;-85
2022/09/08 11:04:56;;;;;;;2.63;2.42;;;;;;;18.44;83.22;98070.97;5071408;28;20161;-85
2022/09/08 11:07:46;;;;;;;2.42;2.22;;;;;;;18.40;83.29;98077.28;5067150;28;20492;-85
2022/09/08 11:10:40;;;;;;;2.35;2.25;;;;;;;18.51;83.39;98078.59;5068584;28;20020;-84
2022/09/08 11:13:30;;;;;;;4.68;2.70;;;;;;;18.68;82.67;98079.38;5076061;28;20036;-85
2022/09/08 11:16:21;;;;;;;2.05;1.88;;;;;;;18.75;82.20;98078.09;5061986;28;20484;-84
2022/09/08 11:19:17;;;;;;;2.25;2.15;;;;;;;18.66;82.70;98078.09;5071964;28;20052;-84
2022/09/08 11:22:24;;;;;;;3.83;1.98;;;;;;;18.70;81.92;98070.94;5063932;28;20350;-84
2022/09/08 11:25:27;;;;;;;2.17;1.98;;;;;;;18.71;82.24;98077.94;5035983;28;20052;-84
2022/09/08 11:28:18;;;;;;;2.25;2.05;;;;;;;18.72;82.18;98078.75;5069152;28;20469;-84
2022/09/08 11:31:13;;;;;;;3.35;2.67;;;;;;;18.47;83.21;98083.84;5063912;28;20059;-84
2022/09/08 11:37:55;;;;;;;2.50;2.30;;;;;;;18.27;84.41;98076.34;5071340;28;20090;-84
2022/09/08 11:40:55;;;;;;;3.35;2.35;;;;;;;18.35;84.26;98075.53;5069224;28;20091;-84
2022/09/08 11:43:39;;;;;;;2.55;2.33;;;;;;;18.36;84.21;98081.75;5068253;28;20069;-84
2022/09/08 11:47:01;;;;;;;2.38;2.17;;;;;;;18.27;83.69;98083.63;5069025;28;20025;-84
2022/09/08 11:50:07;;;;;;;2.03;1.92;;;;;;;18.38;83.26;98093.84;5028172;28;20037;-84
2022/09/08 11:52:41;;;;;;;2.33;2.13;;;;;;;18.37;83.44;98083.34;5080619;28;20032;-84
2022/09/08 11:55:37;;;;;;;2.40;2.10;;;;;;;18.27;83.11;98094.44;5071134;28;20032;-84
2022/09/08 11:58:15;;;;;;;1.65;1.55;;;;;;;18.17;83.71;98079.34;5064642;28;20678;-84
2022/09/08 12:01:11;;;;;;;2.05;1.85;;;;;;;18.35;82.93;98089.06;5065534;28;20098;-83
2022/09/08 12:04:01;;;;;;;1.83;1.73;;;;;;;18.27;83.87;98097.16;5063595;28;20025;-84